Time;durP1;ratioP1;P1;durP2;ratioP2;P2;SDS_P1;SDS_P2;PMS_P1;PMS_P2;Temp;Humidity;BMP_temperature;BMP_pressure;BME280_temperature;BME280_humidity;BME280_pressure;Samples;Min_cycle;Max_cycle;Signal;HPM_P1;HPM_P2
2024/04/17 00:00:37;;;;;;;3.30;3.00;;;9.50;99.90;;;;;;5341215;26;20523;-69
2024/04/17 00:03:02;;;;;;;3.60;2.57;;;9.50;99.90;;;;;;5345030;26;21047;-69
2024/04/17 00:05:28;;;;;;;3.07;2.47;;;9.50;99.90;;;;;;5349314;26;20522;-69
2024/04/17 00:07:54;;;;;;;2.93;2.50;;;9.60;99.90;;;;;;5344183;26;20655;-68
2024/04/17 00:10:19;;;;;;;4.20;2.80;;;9.60;99.90;;;;;;5348485;26;20749;-68
2024/04/17 00:12:45;;;;;;;3.97;2.70;;;9.50;99.90;;;;;;5356623;26;20246;-68
2024/04/17 00:15:11;;;;;;;3.57;2.80;;;9.50;99.90;;;;;;5341650;26;20276;-68
2024/04/17 00:17:37;;;;;;;3.93;2.93;;;9.50;99.90;;;;;;5340768;26;20247;-68
2024/04/17 00:20:04;;;;;;;2.90;2.50;;;9.50;99.90;;;;;;5338309;26;20567;-68
2024/04/17 00:22:29;;;;;;;3.67;2.60;;;9.40;99.90;;;;;;5348363;26;20235;-68
2024/04/17 00:24:55;;;;;;;6.17;3.30;;;9.50;99.90;;;;;;5346854;26;20518;-68
2024/04/17 00:27:20;;;;;;;4.10;2.70;;;9.50;99.90;;;;;;5347696;26;20289;-68
2024/04/17 00:29:46;;;;;;;4.73;2.60;;;9.60;99.90;;;;;;5351333;26;20235;-68
2024/04/17 00:32:11;;;;;;;4.50;2.90;;;9.50;99.90;;;;;;5353343;26;20268;-68
2024/04/17 00:34:37;;;;;;;3.10;2.60;;;9.50;99.90;;;;;;5347358;26;20238;-68
2024/04/17 00:37:03;;;;;;;3.10;2.73;;;9.50;99.90;;;;;;5346001;26;20249;-68
2024/04/17 00:39:28;;;;;;;3.83;3.33;;;9.60;99.90;;;;;;5348100;26;21060;-68
2024/04/17 00:41:54;;;;;;;3.63;2.80;;;9.50;99.90;;;;;;5346663;26;20539;-68
2024/04/17 00:44:20;;;;;;;3.40;2.77;;;9.50;99.90;;;;;;5357042;26;20242;-68
2024/04/17 00:46:45;;;;;;;4.43;3.40;;;9.50;99.90;;;;;;5346898;26;20802;-68
2024/04/17 00:49:11;;;;;;;4.40;3.20;;;9.50;99.90;;;;;;5355056;26;20230;-68
2024/04/17 00:51:39;;;;;;;3.70;2.90;;;9.50;99.90;;;;;;5344773;26;20241;-68
2024/04/17 00:54:05;;;;;;;3.30;2.60;;;9.60;99.90;;;;;;5347519;26;20938;-69
2024/04/17 00:56:32;;;;;;;2.83;2.50;;;9.70;99.90;;;;;;5345318;26;20792;-69
2024/04/17 00:58:59;;;;;;;3.40;2.83;;;9.60;99.90;;;;;;5344648;26;20519;-69
2024/04/17 01:01:24;;;;;;;3.30;2.87;;;9.60;99.90;;;;;;5348138;26;20931;-68
2024/04/17 01:03:50;;;;;;;3.60;3.20;;;9.60;99.90;;;;;;5353188;26;20468;-68
2024/04/17 01:06:16;;;;;;;3.33;2.90;;;9.60;99.90;;;;;;5343380;26;20239;-69
2024/04/17 01:08:41;;;;;;;3.83;3.30;;;9.60;99.90;;;;;;5354028;26;20230;-69
2024/04/17 01:11:07;;;;;;;3.90;3.13;;;9.60;99.90;;;;;;5346184;26;20531;-68
2024/04/17 01:13:32;;;;;;;5.10;3.00;;;9.50;99.90;;;;;;5342238;26;20567;-68
2024/04/17 01:15:58;;;;;;;4.90;2.87;;;9.50;99.90;;;;;;5344153;26;20407;-69
2024/04/17 01:18:24;;;;;;;3.37;3.07;;;9.50;99.90;;;;;;5355470;26;20431;-68
2024/04/17 01:20:50;;;;;;;3.50;2.93;;;9.50;99.90;;;;;;5357461;26;20231;-68
2024/04/17 01:23:15;;;;;;;3.57;2.87;;;9.60;99.90;;;;;;5337553;26;20474;-68
2024/04/17 01:25:41;;;;;;;3.47;3.00;;;9.50;99.90;;;;;;5355523;26;20278;-68
2024/04/17 01:28:07;;;;;;;4.47;3.27;;;9.40;99.90;;;;;;5346961;26;20674;-68
2024/04/17 01:30:32;;;;;;;3.90;3.40;;;9.40;99.90;;;;;;5343372;26;20238;-68
2024/04/17 01:32:58;;;;;;;4.23;3.83;;;9.40;99.90;;;;;;5346513;26;20288;-68
2024/04/17 01:35:24;;;;;;;4.20;3.10;;;9.40;99.90;;;;;;5351255;26;21109;-70
2024/04/17 01:37:50;;;;;;;4.50;3.17;;;9.40;99.90;;;;;;5357964;26;20511;-68
2024/04/17 01:40:15;;;;;;;3.40;3.10;;;9.30;99.90;;;;;;5345149;26;21398;-68
2024/04/17 01:42:41;;;;;;;4.00;2.83;;;9.30;99.90;;;;;;5349567;26;20343;-69
2024/04/17 01:45:07;;;;;;;4.67;2.87;;;9.20;99.90;;;;;;5347147;26;20668;-68
2024/04/17 01:47:32;;;;;;;3.63;3.27;;;9.20;99.90;;;;;;5354344;26;20389;-68
2024/04/17 01:50:02;;;;;;;3.67;3.10;;;9.20;99.90;;;;;;5351502;26;20222;-68
2024/04/17 01:52:27;;;;;;;4.63;3.30;;;9.20;99.90;;;;;;5353586;26;20256;-68
2024/04/17 01:54:53;;;;;;;4.73;3.23;;;9.20;99.90;;;;;;5346550;26;20469;-68
2024/04/17 01:57:18;;;;;;;5.33;3.90;;;9.20;99.90;;;;;;5344984;26;20239;-68
2024/04/17 01:59:44;;;;;;;5.90;3.17;;;9.10;99.90;;;;;;5354330;26;20324;-69
2024/04/17 02:02:09;;;;;;;6.43;4.00;;;9.10;99.90;;;;;;5341028;26;20242;-68
2024/04/17 02:04:35;;;;;;;4.27;3.87;;;9.10;99.90;;;;;;5350976;26;20284;-68
2024/04/17 02:07:00;;;;;;;4.47;3.50;;;9.10;99.90;;;;;;5354741;26;20314;-68
2024/04/17 02:09:26;;;;;;;6.80;3.80;;;9.20;99.90;;;;;;5348405;26;20787;-68
2024/04/17 02:11:52;;;;;;;3.70;3.40;;;9.20;99.90;;;;;;5355826;26;20239;-68
2024/04/17 02:14:19;;;;;;;4.03;3.53;;;9.20;99.90;;;;;;5339447;26;20243;-69
2024/04/17 02:16:45;;;;;;;4.00;3.40;;;9.10;99.90;;;;;;5340973;26;21414;-69
2024/04/17 02:19:10;;;;;;;4.40;3.73;;;9.10;99.90;;;;;;5347109;26;20480;-68
2024/04/17 02:21:36;;;;;;;5.20;3.57;;;9.00;99.90;;;;;;5345818;26;20276;-68
2024/04/17 02:24:01;;;;;;;5.50;3.97;;;9.00;99.90;;;;;;5345234;26;20317;-68
2024/04/17 02:26:27;;;;;;;4.03;3.43;;;9.00;99.90;;;;;;5355520;26;20574;-68
2024/04/17 02:28:52;;;;;;;5.17;4.17;;;9.00;99.90;;;;;;5357282;26;20239;-68
2024/04/17 02:31:18;;;;;;;7.77;3.93;;;8.90;99.90;;;;;;5355850;26;20282;-68
2024/04/17 02:33:44;;;;;;;5.73;4.30;;;8.80;99.90;;;;;;5351792;26;20227;-68
2024/04/17 02:36:09;;;;;;;5.90;3.63;;;8.80;99.90;;;;;;5347318;26;20227;-68
2024/04/17 02:38:36;;;;;;;4.77;4.13;;;8.90;99.90;;;;;;5346632;26;20294;-68
2024/04/17 02:41:01;;;;;;;5.77;4.33;;;8.80;99.90;;;;;;5353614;26;20296;-68
2024/04/17 02:43:28;;;;;;;5.03;4.20;;;8.80;99.90;;;;;;5355379;26;20878;-69
2024/04/17 02:45:53;;;;;;;5.27;4.23;;;8.90;99.90;;;;;;5350653;26;20454;-68
2024/04/17 02:48:19;;;;;;;5.20;4.70;;;8.90;99.90;;;;;;5354411;26;20896;-68
2024/04/17 02:50:44;;;;;;;5.53;4.97;;;8.90;99.90;;;;;;5347218;26;20798;-67
2024/04/17 02:53:10;;;;;;;6.70;4.23;;;8.90;99.90;;;;;;5346808;26;20253;-67
2024/04/17 02:55:35;;;;;;;5.17;4.40;;;8.90;99.90;;;;;;5345847;26;20976;-68
2024/04/17 02:58:01;;;;;;;6.33;5.37;;;8.90;99.90;;;;;;5356759;26;20339;-68
2024/04/17 03:00:27;;;;;;;4.33;3.70;;;8.90;99.90;;;;;;5347701;26;20313;-68
2024/04/17 03:02:52;;;;;;;5.00;4.50;;;9.10;99.90;;;;;;5350201;26;20235;-68
2024/04/17 03:05:18;;;;;;;5.13;4.07;;;9.10;99.90;;;;;;5340829;26;20238;-68
2024/04/17 03:07:46;;;;;;;6.40;4.13;;;9.10;99.90;;;;;;5338404;26;20348;-68
2024/04/17 03:10:12;;;;;;;9.30;4.77;;;9.00;99.90;;;;;;5347618;26;20288;-68
2024/04/17 03:12:38;;;;;;;5.40;4.90;;;9.00;99.90;;;;;;5350342;26;20982;-68
2024/04/17 03:15:06;;;;;;;6.20;4.40;;;8.90;99.90;;;;;;5352091;26;20235;-68
2024/04/17 03:17:32;;;;;;;5.20;4.70;;;9.00;99.90;;;;;;5350674;26;20733;-69
2024/04/17 03:19:58;;;;;;;5.57;5.00;;;9.00;99.90;;;;;;5354296;26;20538;-68
2024/04/17 03:22:23;;;;;;;7.13;5.13;;;9.10;99.90;;;;;;5339995;26;20548;-68
2024/04/17 03:24:51;;;;;;;5.50;5.00;;;9.20;99.90;;;;;;5358721;26;20285;-68
2024/04/17 03:27:16;;;;;;;5.40;4.90;;;9.20;99.90;;;;;;5349894;26;20230;-68
2024/04/17 03:29:42;;;;;;;7.00;5.30;;;9.10;99.90;;;;;;5355274;26;20600;-67
2024/04/17 03:32:07;;;;;;;5.40;4.90;;;9.10;99.90;;;;;;5352769;26;20254;-68
2024/04/17 03:34:33;;;;;;;6.57;5.70;;;9.20;99.90;;;;;;5348760;26;20351;-69
2024/04/17 03:36:58;;;;;;;5.60;5.00;;;9.30;99.90;;;;;;5345148;26;20222;-68
2024/04/17 03:39:24;;;;;;;5.37;4.30;;;9.20;99.90;;;;;;5349013;26;20230;-68
2024/04/17 03:41:50;;;;;;;5.10;4.60;;;9.20;99.90;;;;;;5350961;26;20281;-68
2024/04/17 03:44:15;;;;;;;5.53;5.03;;;9.30;99.90;;;;;;5343222;26;20367;-68
2024/04/17 03:46:41;;;;;;;6.23;4.73;;;9.40;99.90;;;;;;5349239;26;20291;-68
2024/04/17 03:49:06;;;;;;;4.60;4.00;;;9.30;99.90;;;;;;5343445;26;20227;-68
2024/04/17 03:51:32;;;;;;;5.73;4.70;;;9.30;99.90;;;;;;5351074;26;20732;-67
2024/04/17 03:53:57;;;;;;;7.80;4.20;;;9.30;99.90;;;;;;5357510;26;20964;-68
2024/04/17 03:56:23;;;;;;;4.50;4.10;;;9.40;99.90;;;;;;5346388;26;21057;-68
2024/04/17 03:58:48;;;;;;;6.50;4.40;;;9.40;99.90;;;;;;5348358;26;20578;-68
2024/04/17 04:01:14;;;;;;;6.50;4.77;;;9.40;99.90;;;;;;5349767;26;20705;-68
2024/04/17 04:03:39;;;;;;;5.00;4.50;;;9.40;99.90;;;;;;5353261;26;20672;-69
2024/04/17 04:06:05;;;;;;;5.73;4.57;;;9.40;99.90;;;;;;5343410;26;20361;-67
2024/04/17 04:08:31;;;;;;;5.87;4.80;;;9.40;99.90;;;;;;5358574;26;20271;-67
2024/04/17 04:10:56;;;;;;;4.20;3.80;;;9.50;99.90;;;;;;5365217;26;20342;-67
2024/04/17 04:13:22;;;;;;;4.73;4.23;;;9.50;99.90;;;;;;5350545;26;20301;-67
2024/04/17 04:15:51;;;;;;;4.50;3.90;;;9.40;99.90;;;;;;5358841;26;20238;-68
2024/04/17 04:18:17;;;;;;;4.37;3.97;;;9.40;99.90;;;;;;5346331;26;20277;-68
2024/04/17 04:20:43;;;;;;;3.23;2.90;;;9.40;99.90;;;;;;5351530;26;21076;-67
2024/04/17 04:23:08;;;;;;;3.90;3.50;;;9.40;99.90;;;;;;5347306;26;20878;-67
2024/04/17 04:25:34;;;;;;;5.53;3.70;;;9.30;99.90;;;;;;5346751;26;20277;-67
2024/04/17 04:27:59;;;;;;;3.70;3.40;;;9.30;99.90;;;;;;5348228;26;20305;-68
2024/04/17 04:30:25;;;;;;;3.83;3.40;;;9.30;99.90;;;;;;5349692;26;20246;-67
2024/04/17 04:32:50;;;;;;;3.30;2.97;;;9.30;99.90;;;;;;5341037;26;20255;-68
2024/04/17 04:35:16;;;;;;;3.37;2.73;;;9.20;99.90;;;;;;5353956;26;20234;-68
2024/04/17 04:37:42;;;;;;;3.00;2.70;;;9.00;99.90;;;;;;5351117;26;20294;-68
2024/04/17 04:40:07;;;;;;;2.83;2.53;;;9.00;99.90;;;;;;5349928;26;20292;-68
2024/04/17 04:42:33;;;;;;;2.50;2.23;;;9.00;99.90;;;;;;5343229;26;20235;-69
2024/04/17 04:44:59;;;;;;;3.20;2.40;;;9.00;99.90;;;;;;5349317;26;21024;-68
2024/04/17 04:47:24;;;;;;;3.53;2.50;;;9.00;99.90;;;;;;5351046;26;20222;-68
2024/04/17 04:49:50;;;;;;;3.47;2.33;;;9.00;99.90;;;;;;5355766;26;20650;-67
2024/04/17 04:52:15;;;;;;;2.73;2.50;;;9.00;99.90;;;;;;5344940;26;20709;-68
2024/04/17 04:54:41;;;;;;;3.90;2.67;;;9.00;99.90;;;;;;5349512;26;21128;-68
2024/04/17 04:57:06;;;;;;;3.60;2.20;;;9.10;99.90;;;;;;5354065;26;20339;-67
2024/04/17 04:59:32;;;;;;;4.40;2.73;;;9.00;99.90;;;;;;5339903;26;20831;-68
2024/04/17 05:01:58;;;;;;;5.07;2.73;;;8.90;99.90;;;;;;5359192;26;20283;-68
2024/04/17 05:04:24;;;;;;;3.27;2.90;;;8.90;99.90;;;;;;5346433;26;20236;-68
2024/04/17 05:06:49;;;;;;;4.50;2.60;;;9.00;99.90;;;;;;5355698;26;20523;-68
2024/04/17 05:09:15;;;;;;;3.30;2.50;;;9.00;99.90;;;;;;5337144;26;20636;-67
2024/04/17 05:11:40;;;;;;;2.70;2.20;;;8.90;99.90;;;;;;5348297;26;20251;-68
2024/04/17 05:14:06;;;;;;;3.30;2.57;;;8.80;99.90;;;;;;5355353;26;20296;-68
2024/04/17 05:16:31;;;;;;;2.90;2.30;;;8.80;99.90;;;;;;5348632;26;20231;-68
2024/04/17 05:18:57;;;;;;;3.50;2.63;;;8.80;99.90;;;;;;5352548;26;20278;-68
2024/04/17 05:21:23;;;;;;;2.90;2.30;;;8.70;99.90;;;;;;5349434;26;20230;-68
2024/04/17 05:23:49;;;;;;;3.57;2.50;;;8.80;99.90;;;;;;5353649;26;20540;-68
2024/04/17 05:26:14;;;;;;;2.80;2.23;;;8.70;99.90;;;;;;5360472;26;20464;-68
2024/04/17 05:28:40;;;;;;;4.53;2.27;;;8.60;99.90;;;;;;5355216;26;20345;-68
2024/04/17 05:31:05;;;;;;;4.37;2.20;;;8.60;99.90;;;;;;5351463;26;20235;-67
2024/04/17 05:33:31;;;;;;;3.10;2.27;;;8.60;99.90;;;;;;5348294;26;20239;-68
2024/04/17 05:35:57;;;;;;;3.33;2.80;;;8.50;99.90;;;;;;5358126;26;20234;-68
2024/04/17 05:38:22;;;;;;;3.27;2.43;;;8.40;99.90;;;;;;5345576;26;20238;-68
2024/04/17 05:40:48;;;;;;;3.83;2.60;;;8.40;99.90;;;;;;5353860;26;20238;-68
2024/04/17 05:43:17;;;;;;;3.53;2.70;;;8.60;99.90;;;;;;5357284;26;20309;-68
2024/04/17 05:45:44;;;;;;;3.40;2.53;;;8.60;99.90;;;;;;5356410;26;20349;-68
2024/04/17 05:48:10;;;;;;;2.90;2.50;;;8.70;99.90;;;;;;5352066;26;20851;-68
2024/04/17 05:50:37;;;;;;;4.23;2.83;;;8.80;99.90;;;;;;5344922;26;20480;-69
2024/04/17 05:53:03;;;;;;;3.70;2.80;;;8.80;99.90;;;;;;5355743;26;20269;-68
2024/04/17 05:55:29;;;;;;;4.17;3.10;;;8.80;99.90;;;;;;5348749;26;20472;-68
2024/04/17 05:57:54;;;;;;;3.30;2.73;;;8.80;99.90;;;;;;5354406;26;20720;-68
2024/04/17 06:00:20;;;;;;;3.00;2.70;;;8.90;99.90;;;;;;5346421;26;20527;-68
2024/04/17 06:02:46;;;;;;;3.00;2.40;;;8.90;99.90;;;;;;5355377;26;20353;-68
2024/04/17 06:05:12;;;;;;;4.47;2.60;;;9.00;99.90;;;;;;5348264;26;20464;-68
2024/04/17 06:07:38;;;;;;;3.80;2.67;;;9.00;99.90;;;;;;5352282;26;20734;-68
2024/04/17 06:10:05;;;;;;;3.70;2.73;;;9.10;99.90;;;;;;5358094;26;20242;-68
2024/04/17 06:12:30;;;;;;;3.57;2.90;;;9.30;99.90;;;;;;5346027;26;20887;-68
2024/04/17 06:14:56;;;;;;;2.93;2.50;;;9.30;99.90;;;;;;5351701;26;20534;-68
2024/04/17 06:17:22;;;;;;;4.30;2.80;;;9.30;99.90;;;;;;5353421;26;20307;-68
2024/04/17 06:19:48;;;;;;;3.70;2.77;;;9.20;99.90;;;;;;5341264;26;20235;-68
2024/04/17 06:22:15;;;;;;;3.80;3.03;;;9.20;99.90;;;;;;5352756;26;20477;-68
2024/04/17 06:24:41;;;;;;;3.67;2.70;;;9.30;99.90;;;;;;5351770;26;20481;-69
2024/04/17 06:27:06;;;;;;;5.10;3.17;;;9.20;99.90;;;;;;5353559;26;20524;-69
2024/04/17 06:29:33;;;;;;;3.40;2.90;;;9.10;99.90;;;;;;5348163;26;21026;-68
2024/04/17 06:31:58;;;;;;;5.40;3.20;;;9.00;99.90;;;;;;5352616;26;20890;-68
2024/04/17 06:34:24;;;;;;;4.50;3.53;;;9.10;99.90;;;;;;5348643;26;20518;-68
2024/04/17 06:36:49;;;;;;;8.00;3.50;;;9.10;99.90;;;;;;5348469;26;20725;-69
2024/04/17 06:39:15;;;;;;;4.00;3.23;;;8.90;99.90;;;;;;5351126;26;20339;-68
2024/04/17 06:41:40;;;;;;;6.03;3.60;;;9.00;99.90;;;;;;5342806;26;20626;-68
2024/04/17 06:44:06;;;;;;;5.03;3.93;;;9.10;99.90;;;;;;5357109;26;20269;-69
2024/04/17 06:46:31;;;;;;;11.63;4.20;;;9.20;99.90;;;;;;5349688;26;20246;-69
2024/04/17 06:48:57;;;;;;;4.70;3.70;;;9.20;99.90;;;;;;5348008;26;20966;-68
2024/04/17 06:51:22;;;;;;;6.60;3.80;;;9.40;99.90;;;;;;5355181;26;20231;-68
2024/04/17 06:53:48;;;;;;;24.00;15.73;;;9.40;99.90;;;;;;5349529;26;20239;-68
2024/04/17 06:56:14;;;;;;;6.47;4.80;;;9.50;99.90;;;;;;5338158;26;20256;-68
2024/04/17 06:58:39;;;;;;;5.70;3.70;;;9.50;99.90;;;;;;5353707;26;20237;-68
2024/04/17 07:01:05;;;;;;;5.13;4.37;;;9.50;99.90;;;;;;5347888;26;20234;-68
2024/04/17 07:03:30;;;;;;;5.50;4.03;;;9.60;99.90;;;;;;5349643;26;20324;-69
2024/04/17 07:06:03;;;;;;;6.00;5.40;;;9.60;99.90;;;;;;5347596;26;20288;-69
2024/04/17 07:08:29;;;;;;;5.90;3.50;;;9.80;99.90;;;;;;5346134;26;20861;-69
2024/04/17 07:10:55;;;;;;;4.93;4.40;;;9.90;99.90;;;;;;5353170;26;20536;-68
2024/04/17 07:13:20;;;;;;;5.40;4.63;;;9.80;99.90;;;;;;5343804;26;20281;-68
2024/04/17 07:15:46;;;;;;;6.33;5.00;;;9.90;99.90;;;;;;5342698;26;20340;-69
2024/04/17 07:18:11;;;;;;;7.43;4.80;;;9.90;99.90;;;;;;5344291;26;20277;-68
2024/04/17 07:20:38;;;;;;;7.17;4.27;;;9.90;99.90;;;;;;5353845;26;20270;-69
2024/04/17 07:23:03;;;;;;;5.60;4.40;;;10.00;99.90;;;;;;5343421;26;20243;-70
2024/04/17 07:25:29;;;;;;;5.90;5.07;;;10.10;99.90;;;;;;5341858;26;21709;-69
2024/04/17 07:27:54;;;;;;;6.30;4.93;;;10.10;99.90;;;;;;5345351;26;20816;-69
2024/04/17 07:30:20;;;;;;;10.20;5.60;;;10.10;99.90;;;;;;5344009;26;20246;-69
2024/04/17 07:32:46;;;;;;;8.90;4.40;;;10.30;99.90;;;;;;5352097;26;20235;-69
2024/04/17 07:35:11;;;;;;;6.57;4.80;;;10.30;99.90;;;;;;5345506;26;20927;-69
2024/04/17 07:37:37;;;;;;;7.73;4.40;;;10.30;99.90;;;;;;5348344;26;20465;-69
2024/04/17 07:40:04;;;;;;;6.23;4.57;;;10.30;99.90;;;;;;5344343;26;20230;-69
2024/04/17 07:42:30;;;;;;;6.43;4.97;;;10.30;99.90;;;;;;5357552;26;20357;-69
2024/04/17 07:44:56;;;;;;;5.97;4.70;;;10.30;99.90;;;;;;5346479;26;20534;-69
2024/04/17 07:47:21;;;;;;;5.80;4.60;;;10.30;99.90;;;;;;5352172;26;20246;-68
2024/04/17 07:49:47;;;;;;;8.90;4.87;;;10.30;99.90;;;;;;5348745;26;20582;-68
2024/04/17 07:52:13;;;;;;;7.67;4.67;;;10.20;99.90;;;;;;5353991;26;20330;-69
2024/04/17 07:54:38;;;;;;;6.40;4.50;;;10.00;99.90;;;;;;5349520;26;20284;-69
2024/04/17 07:57:04;;;;;;;8.87;4.30;;;10.00;99.90;;;;;;5341562;26;20286;-69
2024/04/17 07:59:29;;;;;;;5.60;4.33;;;10.10;99.90;;;;;;5342737;26;20235;-69
2024/04/17 08:01:55;;;;;;;6.83;4.63;;;10.20;99.90;;;;;;5354908;26;20230;-69
2024/04/17 08:04:20;;;;;;;8.70;5.00;;;10.30;99.90;;;;;;5344254;26;20242;-70
2024/04/17 08:06:46;;;;;;;7.73;4.40;;;10.30;99.90;;;;;;5349414;26;20268;-68
2024/04/17 08:09:12;;;;;;;5.97;4.20;;;10.30;99.90;;;;;;5355948;26;20788;-68
2024/04/17 08:11:37;;;;;;;9.50;4.40;;;10.30;99.90;;;;;;5349245;26;20692;-68
2024/04/17 08:14:03;;;;;;;8.33;4.50;;;10.50;99.90;;;;;;5356226;26;20238;-69
2024/04/17 08:16:29;;;;;;;7.50;5.33;;;10.60;99.90;;;;;;5342760;26;20785;-69
2024/04/17 08:18:55;;;;;;;7.63;3.90;;;10.70;99.90;;;;;;5340750;26;20465;-68
2024/04/17 08:21:21;;;;;;;8.10;4.83;;;10.70;99.90;;;;;;5342379;26;20570;-68
2024/04/17 08:23:47;;;;;;;9.07;4.40;;;10.80;99.90;;;;;;5352683;26;20242;-69
2024/04/17 08:26:12;;;;;;;14.10;5.57;;;10.90;99.90;;;;;;5355045;26;20408;-69
2024/04/17 08:28:38;;;;;;;8.27;5.83;;;10.90;99.90;;;;;;5355475;26;20523;-69
2024/04/17 08:31:04;;;;;;;7.00;4.47;;;11.00;99.90;;;;;;5351115;26;20280;-69
2024/04/17 08:33:29;;;;;;;6.43;5.03;;;11.00;99.90;;;;;;5347391;26;20337;-69
2024/04/17 08:35:55;;;;;;;7.80;4.90;;;11.10;99.90;;;;;;5354285;26;20717;-69
2024/04/17 08:38:21;;;;;;;7.60;5.40;;;11.20;99.90;;;;;;5351509;26;20256;-69
2024/04/17 08:40:46;;;;;;;7.20;4.80;;;11.20;99.90;;;;;;5358240;26;20744;-69
2024/04/17 08:43:26;;;;;;;6.10;5.43;;;11.20;99.90;;;;;;5345587;26;20231;-68
2024/04/17 08:45:54;;;;;;;7.33;4.93;;;11.30;99.90;;;;;;5360677;26;20736;-68
2024/04/17 08:48:21;;;;;;;8.33;5.40;;;11.30;99.90;;;;;;5357975;26;20524;-69
2024/04/17 08:50:46;;;;;;;7.10;5.10;;;11.30;99.90;;;;;;5364313;26;20471;-69
2024/04/17 08:53:16;;;;;;;6.47;5.50;;;11.30;99.90;;;;;;5352908;26;21131;-69
2024/04/17 08:55:43;;;;;;;11.67;5.27;;;11.10;99.90;;;;;;5344582;26;20458;-69
2024/04/17 08:58:10;;;;;;;6.70;5.40;;;11.10;99.90;;;;;;5363788;26;20462;-69
2024/04/17 09:00:37;;;;;;;8.40;5.57;;;11.10;99.90;;;;;;5346966;26;20578;-69
2024/04/17 09:03:10;;;;;;;8.87;5.27;;;11.00;99.90;;;;;;5354450;26;20472;-69
2024/04/17 09:05:36;;;;;;;8.20;5.37;;;10.90;99.90;;;;;;5346370;26;20468;-69
2024/04/17 09:08:02;;;;;;;6.60;5.47;;;10.80;99.90;;;;;;5347025;26;20468;-69
2024/04/17 09:10:27;;;;;;;10.43;5.57;;;10.70;99.90;;;;;;5359381;26;20665;-69
2024/04/17 09:12:54;;;;;;;10.20;6.10;;;10.80;99.90;;;;;;5353598;26;20242;-69
2024/04/17 09:15:20;;;;;;;11.70;6.00;;;10.80;99.90;;;;;;5357993;26;20238;-69
2024/04/17 09:17:48;;;;;;;9.47;5.67;;;10.60;99.90;;;;;;5355057;26;20555;-69
2024/04/17 09:20:14;;;;;;;6.63;5.93;;;10.70;99.90;;;;;;5349604;26;20897;-69
2024/04/17 09:22:40;;;;;;;7.47;6.10;;;10.80;99.90;;;;;;5346153;26;20472;-69
2024/04/17 09:25:13;;;;;;;13.20;8.70;;;10.90;99.90;;;;;;5354517;26;20826;-69
2024/04/17 09:27:39;;;;;;;8.80;6.80;;;11.00;99.90;;;;;;5354544;26;20802;-69
2024/04/17 09:30:05;;;;;;;8.67;6.40;;;11.10;99.90;;;;;;5346870;26;20482;-69
2024/04/17 09:32:31;;;;;;;8.40;6.53;;;11.30;99.90;;;;;;5357140;26;20593;-69
2024/04/17 09:34:56;;;;;;;9.50;7.33;;;11.60;99.90;;;;;;5355207;26;20462;-69
2024/04/17 09:37:22;;;;;;;9.87;7.00;;;11.80;99.90;;;;;;5363969;26;20346;-69
2024/04/17 09:39:48;;;;;;;11.33;6.90;;;11.90;99.90;;;;;;5358118;26;20230;-69
2024/04/17 09:42:16;;;;;;;9.13;6.47;;;12.00;99.90;;;;;;5347060;26;20234;-69
2024/04/17 09:44:44;;;;;;;10.40;6.13;;;12.00;99.90;;;;;;5350497;26;20243;-70
2024/04/17 09:47:11;;;;;;;10.57;7.03;;;11.90;99.90;;;;;;5353278;26;21106;-70
2024/04/17 09:49:45;;;;;;;14.17;6.90;;;11.90;99.90;;;;;;5345230;26;20514;-69
2024/04/17 09:52:17;;;;;;;10.13;6.10;;;11.80;99.90;;;;;;5344785;26;20465;-67
2024/04/17 09:54:44;;;;;;;11.73;6.93;;;11.70;99.90;;;;;;5348395;26;20464;-67
2024/04/17 09:57:11;;;;;;;11.70;8.20;;;11.70;99.90;;;;;;5345986;26;20477;-68
2024/04/17 09:59:37;;;;;;;13.53;7.93;;;11.90;99.90;;;;;;5353202;26;21396;-68
2024/04/17 10:02:04;;;;;;;8.13;6.80;;;12.10;99.90;;;;;;5349148;26;20604;-68
2024/04/17 10:04:30;;;;;;;8.13;6.70;;;12.30;99.90;;;;;;5358545;26;20552;-68
2024/04/17 10:06:58;;;;;;;8.47;6.43;;;12.40;99.90;;;;;;5350086;26;20542;-68
2024/04/17 10:09:28;;;;;;;7.73;7.03;;;12.70;99.90;;;;;;5349319;26;21017;-68
2024/04/17 10:11:56;;;;;;;6.47;5.73;;;12.80;99.90;;;;;;5349347;26;20470;-68
2024/04/17 10:14:23;;;;;;;7.43;6.00;;;12.90;99.90;;;;;;5349231;26;20464;-69
2024/04/17 10:16:49;;;;;;;9.50;5.77;;;13.10;99.90;;;;;;5350249;26;20460;-68
2024/04/17 10:19:15;;;;;;;8.77;5.57;;;13.30;99.90;;;;;;5354163;26;20460;-68
2024/04/17 10:21:42;;;;;;;7.10;5.57;;;13.40;99.90;;;;;;5343739;26;20317;-69
2024/04/17 10:24:11;;;;;;;7.93;5.43;;;13.50;99.90;;;;;;5345050;26;20238;-68
2024/04/17 10:26:48;;;;;;;6.43;4.93;;;13.70;99.90;;;;;;5349711;26;20499;-68
2024/04/17 10:29:24;;;;;;;6.50;5.10;;;13.90;99.90;;;;;;5353457;26;20474;-67
2024/04/17 10:31:56;;;;;;;9.43;4.97;;;13.90;99.90;;;;;;5353224;26;20987;-68
2024/04/17 10:34:22;;;;;;;7.13;4.90;;;13.80;99.90;;;;;;5354374;26;20460;-68
2024/04/17 10:36:58;;;;;;;8.27;5.50;;;13.60;99.90;;;;;;5344265;26;20883;-68
2024/04/17 10:39:28;;;;;;;6.77;5.40;;;13.40;99.90;;;;;;5354234;26;20553;-68
2024/04/17 10:41:54;;;;;;;13.70;4.60;;;13.30;99.90;;;;;;5344119;26;20478;-68
2024/04/17 10:44:20;;;;;;;6.53;5.17;;;13.30;99.90;;;;;;5341602;26;20846;-68
2024/04/17 10:46:46;;;;;;;7.17;6.47;;;13.40;99.90;;;;;;5353050;26;20234;-68
2024/04/17 10:49:18;;;;;;;8.90;4.40;;;13.50;99.90;;;;;;5358361;26;20531;-68
2024/04/17 10:51:44;;;;;;;6.63;5.00;;;13.50;99.90;;;;;;5348164;26;20272;-68
2024/04/17 10:54:13;;;;;;;9.13;5.10;;;13.40;99.90;;;;;;5344007;26;20458;-68
2024/04/17 10:56:39;;;;;;;8.77;4.97;;;13.20;99.90;;;;;;5336917;26;20462;-68
2024/04/17 10:59:04;;;;;;;9.73;5.40;;;13.00;99.90;;;;;;5337700;26;20556;-68
2024/04/17 11:01:31;;;;;;;10.07;5.43;;;12.90;99.90;;;;;;5346086;26;20290;-69
2024/04/17 11:04:00;;;;;;;11.77;6.70;;;12.60;99.90;;;;;;5343214;26;20274;-69
2024/04/17 11:06:25;;;;;;;7.77;5.50;;;12.30;99.90;;;;;;5348610;26;20560;-69
2024/04/17 11:08:54;;;;;;;5.80;5.20;;;11.80;99.90;;;;;;5355534;26;20464;-68
2024/04/17 11:11:20;;;;;;;6.70;5.70;;;11.70;99.90;;;;;;5345605;26;20251;-68
2024/04/17 11:13:46;;;;;;;6.93;5.20;;;11.60;99.90;;;;;;5356684;26;20536;-68
2024/04/17 11:16:13;;;;;;;6.23;4.90;;;11.50;99.90;;;;;;5343061;26;21110;-68
2024/04/17 11:18:39;;;;;;;6.63;5.00;;;11.30;99.90;;;;;;5365744;26;20491;-69
2024/04/17 11:21:04;;;;;;;4.83;4.33;;;11.20;99.90;;;;;;5353834;26;20480;-69
2024/04/17 11:23:38;;;;;;;6.23;4.73;;;11.00;99.90;;;;;;5349127;26;20576;-69
2024/04/17 11:26:04;;;;;;;6.53;4.80;;;10.90;99.90;;;;;;5357284;26;20229;-69
2024/04/17 11:28:29;;;;;;;7.73;5.33;;;10.90;99.90;;;;;;5344125;26;20543;-69
2024/04/17 11:30:55;;;;;;;6.00;5.30;;;11.00;99.90;;;;;;5356056;26;20385;-69
2024/04/17 11:33:21;;;;;;;7.53;6.30;;;11.00;99.90;;;;;;5340279;26;20807;-68
2024/04/17 11:35:49;;;;;;;9.33;5.90;;;11.00;99.90;;;;;;5349154;26;20270;-69
2024/04/17 11:38:16;;;;;;;6.13;5.10;;;11.10;99.90;;;;;;5344373;26;20717;-69
2024/04/17 11:40:44;;;;;;;6.83;4.83;;;11.40;99.90;;;;;;5346514;26;20516;-69
2024/04/17 11:43:16;;;;;;;6.07;4.77;;;11.50;99.90;;;;;;5349364;26;20456;-69
2024/04/17 11:45:41;;;;;;;8.47;5.00;;;11.60;99.90;;;;;;5358231;26;20458;-69
2024/04/17 11:48:08;;;;;;;4.47;3.90;;;11.60;99.90;;;;;;5352973;26;21326;-69
2024/04/17 11:50:34;;;;;;;9.47;4.70;;;11.70;99.90;;;;;;5353309;26;20242;-69
2024/04/17 11:52:59;;;;;;;6.27;4.30;;;12.10;99.90;;;;;;5348183;26;20456;-69
2024/04/17 11:55:25;;;;;;;8.53;4.97;;;12.40;99.90;;;;;;5354422;26;20327;-69
2024/04/17 11:57:50;;;;;;;5.37;4.30;;;12.70;99.90;;;;;;5352257;26;20797;-69
2024/04/17 12:00:16;;;;;;;6.30;4.80;;;12.90;99.90;;;;;;5349335;26;20691;-69
2024/04/17 12:02:41;;;;;;;6.90;4.77;;;13.30;99.90;;;;;;5351077;26;20242;-69
2024/04/17 12:05:08;;;;;;;5.30;4.40;;;13.80;99.90;;;;;;5357814;26;20338;-69
2024/04/17 12:07:34;;;;;;;6.30;4.80;;;14.20;99.90;;;;;;5344469;26;20278;-69
2024/04/17 12:09:59;;;;;;;4.63;4.17;;;14.50;99.90;;;;;;5346236;26;21055;-69
2024/04/17 12:12:25;;;;;;;4.67;4.10;;;14.70;99.90;;;;;;5343333;26;20237;-69
2024/04/17 12:14:51;;;;;;;7.00;3.90;;;14.70;99.90;;;;;;5354877;26;20330;-69
2024/04/17 12:17:17;;;;;;;4.87;3.60;;;15.00;99.90;;;;;;5346840;26;20289;-69
2024/04/17 12:19:42;;;;;;;5.40;3.40;;;15.30;99.90;;;;;;5356113;26;20472;-69
2024/04/17 12:22:08;;;;;;;5.57;3.50;;;15.60;99.90;;;;;;5341002;26;20273;-69
2024/04/17 12:27:18;;;;;;;5.50;3.10;;;16.50;99.90;;;;;;5344050;26;20873;-69
2024/04/17 12:29:44;;;;;;;5.47;3.23;;;16.30;99.90;;;;;;5349178;26;20470;-69
2024/04/17 12:32:09;;;;;;;5.33;3.20;;;16.60;99.90;;;;;;5338154;26;20235;-69
2024/04/17 12:34:35;;;;;;;4.90;3.00;;;16.40;99.90;;;;;;5353721;26;20385;-69
2024/04/17 12:37:00;;;;;;;5.73;3.43;;;16.40;99.90;;;;;;5347511;26;20810;-69
2024/04/17 12:39:26;;;;;;;7.47;3.93;;;16.50;99.90;;;;;;5359717;26;20331;-69
2024/04/17 12:41:52;;;;;;;4.20;3.20;;;16.90;99.90;;;;;;5353679;26;20285;-70
2024/04/17 12:44:17;;;;;;;4.40;2.97;;;17.40;99.90;;;;;;5345724;26;21078;-70
2024/04/17 12:46:43;;;;;;;6.50;3.20;;;17.10;97.90;;;;;;5359342;26;20681;-67
2024/04/17 12:49:09;;;;;;;4.23;3.23;;;17.20;97.60;;;;;;5354971;26;20348;-67